Time;durP1;ratioP1;P1;durP2;ratioP2;P2;SDS_P1;SDS_P2;PMS_P1;PMS_P2;Temp;Humidity;BMP_temperature;BMP_pressure;BME280_temperature;BME280_humidity;BME280_pressure;Samples;Min_cycle;Max_cycle;Signal;HPM_P1;HPM_P2
2022/08/05 00:01:20;;;;;;;7.15;3.03;;;;;;;-143.66;100.00;63766.88;5062575;28;20595;-62
2022/08/05 00:03:46;;;;;;;4.70;3.58;;;;;;;-143.66;100.00;63766.88;5065456;28;20044;-62
2022/08/05 00:06:12;;;;;;;5.97;2.88;;;;;;;-143.66;100.00;63766.88;5062432;28;20133;-64
2022/08/05 00:08:38;;;;;;;4.68;3.53;;;;;;;-143.66;100.00;63766.88;5062080;28;20040;-64
2022/08/05 00:11:11;;;;;;;4.57;3.20;;;;;;;-143.66;100.00;63766.88;5062983;28;20124;-66
2022/08/05 00:13:39;;;;;;;6.10;3.63;;;;;;;-143.66;100.00;63766.88;5066316;28;20048;-64
2022/08/05 00:16:05;;;;;;;3.78;2.90;;;;;;;-143.66;100.00;63766.88;5068005;28;20028;-64
2022/08/05 00:18:31;;;;;;;3.60;3.08;;;;;;;-143.66;100.00;63766.88;5060272;28;20054;-64
2022/08/05 00:20:56;;;;;;;4.28;3.20;;;;;;;-143.66;100.00;63766.88;5060143;28;20044;-64
2022/08/05 00:23:22;;;;;;;4.38;3.08;;;;;;;-143.66;100.00;63766.88;5065154;28;20048;-62
2022/08/05 00:25:48;;;;;;;4.88;2.90;;;;;;;-143.66;100.00;63766.88;5061126;28;20140;-64
2022/08/05 00:28:13;;;;;;;5.22;3.28;;;;;;;-143.66;100.00;63766.88;5067016;28;20036;-64
2022/08/05 00:30:39;;;;;;;4.40;2.95;;;;;;;-143.66;100.00;63766.88;5055601;28;20483;-64
2022/08/05 00:33:05;;;;;;;3.10;2.80;;;;;;;-143.66;100.00;63766.88;5070783;28;20052;-64
2022/08/05 00:35:30;;;;;;;3.55;2.80;;;;;;;-143.66;100.00;63766.88;5058716;28;20340;-62
2022/08/05 00:37:56;;;;;;;4.75;3.05;;;;;;;-143.66;100.00;63766.88;5066754;28;20047;-62
2022/08/05 00:40:24;;;;;;;5.88;3.42;;;;;;;-143.66;100.00;63766.88;5062188;28;20068;-62
2022/08/05 00:42:50;;;;;;;4.88;3.05;;;;;;;-143.66;100.00;63766.88;5066295;28;20165;-63
2022/08/05 00:45:15;;;;;;;6.22;3.10;;;;;;;-143.66;100.00;63766.88;5054556;28;20126;-64
2022/08/05 00:47:41;;;;;;;3.58;2.72;;;;;;;-143.66;100.00;63766.88;5061226;28;20033;-64
2022/08/05 00:50:08;;;;;;;4.03;2.78;;;;;;;-143.66;100.00;63766.88;5058765;28;20050;-64
2022/08/05 00:52:33;;;;;;;5.60;3.08;;;;;;;-143.66;100.00;63766.88;5057081;28;20051;-64
2022/08/05 00:54:59;;;;;;;4.03;2.90;;;;;;;-143.66;100.00;63766.88;5061272;28;20040;-64
2022/08/05 00:57:24;;;;;;;3.50;2.70;;;;;;;-143.66;100.00;63766.88;5072030;28;20056;-64
2022/08/05 00:59:50;;;;;;;3.35;2.80;;;;;;;-143.66;100.00;63766.88;5057477;28;20043;-64
2022/08/05 01:02:15;;;;;;;4.85;3.33;;;;;;;-143.66;100.00;63766.88;5066665;28;20052;-64
2022/08/05 01:04:41;;;;;;;5.40;3.28;;;;;;;-143.66;100.00;63766.88;5061664;28;20083;-64
2022/08/05 01:07:08;;;;;;;4.43;3.33;;;;;;;-143.66;100.00;63766.88;5064008;28;21184;-64
2022/08/05 01:09:33;;;;;;;4.35;3.10;;;;;;;-143.66;100.00;63766.88;5073897;28;20129;-64
2022/08/05 01:12:05;;;;;;;5.32;3.20;;;;;;;-143.66;100.00;63766.88;5069286;28;20036;-64
2022/08/05 01:14:33;;;;;;;5.63;3.00;;;;;;;-143.66;100.00;63766.88;5063705;28;20033;-64
2022/08/05 01:17:05;;;;;;;4.00;3.27;;;;;;;-143.66;100.00;63766.88;5063493;28;20021;-64
2022/08/05 01:19:56;;;;;;;3.40;2.95;;;;;;;-143.66;100.00;63766.88;5068734;28;20490;-64
2022/08/05 01:22:34;;;;;;;5.50;3.13;;;;;;;-143.66;100.00;63766.88;5066985;28;20514;-64
2022/08/05 01:25:21;;;;;;;4.53;2.83;;;;;;;-143.66;100.00;63766.88;5062671;28;20071;-64
2022/08/05 01:28:17;;;;;;;5.32;3.00;;;;;;;-143.66;100.00;63766.88;5064215;28;20032;-64
2022/08/05 01:31:00;;;;;;;4.45;2.92;;;;;;;-143.66;100.00;63766.88;5063014;28;20851;-64
2022/08/05 01:33:31;;;;;;;4.72;3.10;;;;;;;-143.66;100.00;63766.88;5065695;28;20050;-64
2022/08/05 01:36:00;;;;;;;4.25;2.83;;;;;;;-143.66;100.00;63766.88;5061027;28;20053;-64
2022/08/05 01:38:27;;;;;;;4.57;2.78;;;;;;;-143.66;100.00;63766.88;5061300;28;20410;-64
2022/08/05 01:40:53;;;;;;;4.38;3.20;;;;;;;-143.66;100.00;63766.88;5064787;28;20044;-64
2022/08/05 01:43:19;;;;;;;4.85;2.75;;;;;;;-143.66;100.00;63766.88;5063407;28;20185;-64
2022/08/05 01:45:45;;;;;;;4.32;2.97;;;;;;;-143.66;100.00;63766.88;5071584;28;20549;-64
2022/08/05 01:48:12;;;;;;;4.68;3.17;;;;;;;-143.66;100.00;63766.88;5065512;28;20502;-64
2022/08/05 01:50:39;;;;;;;4.80;3.22;;;;;;;-143.66;100.00;63766.88;5061245;28;20123;-64
2022/08/05 01:53:11;;;;;;;5.05;3.03;;;;;;;-143.66;100.00;63766.88;5080129;28;20053;-62
2022/08/05 01:55:38;;;;;;;4.90;2.95;;;;;;;-143.66;100.00;63766.88;5062583;28;20115;-62
2022/08/05 01:58:06;;;;;;;4.07;3.20;;;;;;;-143.66;100.00;63766.88;5064329;28;20045;-62
2022/08/05 02:00:36;;;;;;;4.30;3.20;;;;;;;-143.66;100.00;63766.88;5068803;28;20486;-62
2022/08/05 02:03:28;;;;;;;3.63;2.67;;;;;;;-143.66;100.00;63766.88;5065651;28;20052;-63
2022/08/05 02:05:53;;;;;;;6.85;3.08;;;;;;;-143.66;100.00;63766.88;5054257;28;20052;-63
2022/08/05 02:08:20;;;;;;;4.68;3.00;;;;;;;-143.66;100.00;63766.88;5065691;28;20504;-62
2022/08/05 02:10:51;;;;;;;4.65;3.00;;;;;;;-143.66;100.00;63766.88;5044723;28;20397;-62
2022/08/05 02:13:26;;;;;;;3.65;2.85;;;;;;;-143.66;100.00;63766.88;5065832;28;20047;-62
2022/08/05 02:16:20;;;;;;;6.05;2.90;;;;;;;-143.66;100.00;63766.88;5066634;28;20032;-62
2022/08/05 02:18:57;;;;;;;3.50;2.58;;;;;;;-143.66;100.00;63766.88;5062584;28;20651;-62
2022/08/05 02:21:38;;;;;;;6.53;3.00;;;;;;;-143.66;100.00;63766.88;5063243;28;20055;-63
2022/08/05 02:24:09;;;;;;;3.70;2.72;;;;;;;-143.66;100.00;63766.88;5065879;28;20047;-62
2022/08/05 02:26:42;;;;;;;3.70;3.10;;;;;;;-143.66;100.00;63766.88;5064946;28;20575;-62
2022/08/05 02:29:11;;;;;;;4.40;3.28;;;;;;;-143.66;100.00;63766.88;5062586;28;20162;-62
2022/08/05 02:31:37;;;;;;;4.73;2.87;;;;;;;-143.66;100.00;63766.88;5066153;28;20036;-62
2022/08/05 02:34:07;;;;;;;5.55;3.47;;;;;;;-143.66;100.00;63766.88;5066175;28;20469;-62
2022/08/05 02:36:35;;;;;;;3.30;3.00;;;;;;;-143.66;100.00;63766.88;5062214;28;20036;-62
2022/08/05 02:39:04;;;;;;;4.18;2.95;;;;;;;-143.66;100.00;63766.88;5063437;28;20032;-62
2022/08/05 02:41:32;;;;;;;4.65;2.88;;;;;;;-143.66;100.00;63766.88;5059769;28;20091;-62
2022/08/05 02:43:59;;;;;;;5.03;2.88;;;;;;;-143.66;100.00;63766.88;5071134;28;20371;-62
2022/08/05 02:46:26;;;;;;;3.88;2.63;;;;;;;-143.66;100.00;63766.88;5061537;28;20470;-63
2022/08/05 02:48:54;;;;;;;4.57;2.80;;;;;;;-143.66;100.00;63766.88;5066142;28;20087;-63
2022/08/05 02:51:20;;;;;;;3.40;2.58;;;;;;;-143.66;100.00;63766.88;5063603;28;20461;-62
2022/08/05 02:53:47;;;;;;;3.10;2.80;;;;;;;-143.66;100.00;63766.88;5069171;28;20048;-62
2022/08/05 02:56:14;;;;;;;3.95;2.90;;;;;;;-143.66;100.00;63766.88;5061472;28;20028;-63
2022/08/05 02:58:40;;;;;;;4.43;3.17;;;;;;;-143.66;100.00;63766.88;5071102;28;20032;-62
2022/08/05 03:01:08;;;;;;;3.63;3.00;;;;;;;-143.66;100.00;63766.88;5059824;28;20097;-62
2022/08/05 03:03:39;;;;;;;6.60;3.10;;;;;;;-143.66;100.00;63766.88;5064554;28;20563;-63
2022/08/05 03:06:05;;;;;;;3.90;3.20;;;;;;;-143.66;100.00;63766.88;5068580;28;20039;-62
2022/08/05 03:08:31;;;;;;;4.63;2.70;;;;;;;-143.66;100.00;63766.88;5065533;28;20038;-62
2022/08/05 03:10:57;;;;;;;4.65;3.00;;;;;;;-143.66;100.00;63766.88;5051660;28;20052;-62
2022/08/05 03:13:22;;;;;;;5.53;2.90;;;;;;;-143.66;100.00;63766.88;5064534;28;20040;-62
2022/08/05 03:15:48;;;;;;;3.35;3.03;;;;;;;-143.66;100.00;63766.88;5069639;28;20047;-62
2022/08/05 03:18:13;;;;;;;3.42;3.13;;;;;;;-143.66;100.00;63766.88;5065434;28;20612;-62
2022/08/05 03:20:39;;;;;;;4.20;2.80;;;;;;;-143.66;100.00;63766.88;5061806;28;20059;-63
2022/08/05 03:23:08;;;;;;;4.95;2.90;;;;;;;-143.66;100.00;63766.88;5067234;28;20238;-62
2022/08/05 03:25:35;;;;;;;4.22;3.22;;;;;;;-143.66;100.00;63766.88;5057271;28;20041;-63
2022/08/05 03:28:02;;;;;;;3.47;3.17;;;;;;;-143.66;100.00;63766.88;5059035;28;20062;-63
2022/08/05 03:30:31;;;;;;;5.35;3.22;;;;;;;-143.66;100.00;63766.88;5054093;28;20098;-62
2022/08/05 03:32:58;;;;;;;4.63;3.10;;;;;;;-143.66;100.00;63766.88;5062360;28;20093;-62
2022/08/05 03:35:25;;;;;;;3.95;3.20;;;;;;;-143.66;100.00;63766.88;5063517;28;20051;-62
2022/08/05 03:37:50;;;;;;;4.65;3.53;;;;;;;-143.66;100.00;63766.88;5060337;28;20043;-62
2022/08/05 03:40:16;;;;;;;3.72;3.13;;;;;;;-143.66;100.00;63766.88;5056487;28;20052;-62
2022/08/05 03:42:41;;;;;;;4.03;2.90;;;;;;;-143.66;100.00;63766.88;5063093;28;20294;-62
2022/08/05 03:45:08;;;;;;;3.42;2.90;;;;;;;-143.66;100.00;63766.88;5070836;28;20043;-62
2022/08/05 03:47:33;;;;;;;6.85;3.42;;;;;;;-143.66;100.00;63766.88;5056304;28;20036;-62
2022/08/05 03:49:59;;;;;;;4.22;3.20;;;;;;;-143.66;100.00;63766.88;5044321;28;20136;-62
2022/08/05 03:52:28;;;;;;;2.97;2.72;;;;;;;-143.66;100.00;63766.88;5065063;28;20398;-62
2022/08/05 03:55:01;;;;;;;4.88;3.28;;;;;;;-143.66;100.00;63766.88;5057535;28;20393;-62
2022/08/05 03:57:31;;;;;;;4.10;3.15;;;;;;;-143.66;100.00;63766.88;5062312;28;20047;-62
2022/08/05 04:00:02;;;;;;;3.65;2.90;;;;;;;-143.66;100.00;63766.88;5062077;28;20040;-62
2022/08/05 04:02:41;;;;;;;4.07;2.97;;;;;;;-143.66;100.00;63766.88;5052744;28;20056;-62
2022/08/05 04:05:08;;;;;;;5.45;3.20;;;;;;;-143.66;100.00;63766.88;5045417;28;20123;-62
2022/08/05 04:07:35;;;;;;;4.03;2.75;;;;;;;-143.66;100.00;63766.88;5064313;28;20371;-63
2022/08/05 04:10:02;;;;;;;4.40;3.10;;;;;;;-143.66;100.00;63766.88;5058637;28;20530;-63
2022/08/05 04:12:28;;;;;;;3.72;2.90;;;;;;;-143.66;100.00;63766.88;5058592;28;20636;-62
2022/08/05 04:14:54;;;;;;;3.40;2.78;;;;;;;-143.66;100.00;63766.88;5068423;28;20070;-62
2022/08/05 04:17:20;;;;;;;3.55;3.00;;;;;;;-143.66;100.00;63766.88;5056269;28;20487;-63
2022/08/05 04:19:47;;;;;;;3.70;2.80;;;;;;;-143.66;100.00;63766.88;5055113;28;20036;-63
2022/08/05 04:22:13;;;;;;;4.47;3.13;;;;;;;-143.66;100.00;63766.88;5067195;28;20055;-62
2022/08/05 04:24:44;;;;;;;4.07;2.83;;;;;;;-143.66;100.00;63766.88;5065030;28;20044;-63
2022/08/05 04:27:10;;;;;;;5.82;3.22;;;;;;;-143.66;100.00;63766.88;5056041;28;20382;-62
2022/08/05 04:29:36;;;;;;;4.15;2.83;;;;;;;-143.66;100.00;63766.88;5059693;28;20036;-62
2022/08/05 04:32:01;;;;;;;4.57;2.92;;;;;;;-143.66;100.00;63766.88;5061932;28;20048;-63
2022/08/05 04:34:27;;;;;;;3.83;2.95;;;;;;;-143.66;100.00;63766.88;5066210;28;20090;-63
2022/08/05 04:36:52;;;;;;;5.10;2.80;;;;;;;-143.66;100.00;63766.88;5060612;28;20044;-62
2022/08/05 04:39:19;;;;;;;4.63;3.10;;;;;;;-143.66;100.00;63766.88;5054612;28;20040;-62
2022/08/05 04:41:46;;;;;;;5.25;3.22;;;;;;;-143.66;100.00;63766.88;5064289;28;20047;-62
2022/08/05 04:44:11;;;;;;;4.15;3.00;;;;;;;-143.66;100.00;63766.88;5048232;28;20636;-63
2022/08/05 04:46:37;;;;;;;4.00;2.65;;;;;;;-143.66;100.00;63766.88;5064478;28;20036;-63
2022/08/05 04:49:03;;;;;;;4.75;3.17;;;;;;;-143.66;100.00;63766.88;5059578;28;20389;-63
2022/08/05 04:51:30;;;;;;;4.88;3.20;;;;;;;-143.66;100.00;63766.88;5061407;28;20051;-63
2022/08/05 04:53:56;;;;;;;5.10;3.03;;;;;;;-143.66;100.00;63766.88;5060307;28;20032;-62
2022/08/05 04:56:21;;;;;;;3.50;3.20;;;;;;;-143.66;100.00;63766.88;5062029;28;20078;-62
2022/08/05 04:58:47;;;;;;;5.97;3.30;;;;;;;-143.66;100.00;63766.88;5065407;28;20044;-63
2022/08/05 05:01:12;;;;;;;3.88;3.40;;;;;;;-143.66;100.00;63766.88;5061843;28;20471;-63
2022/08/05 05:03:38;;;;;;;4.65;3.03;;;;;;;-143.66;100.00;63766.88;5062217;28;20048;-63
2022/08/05 05:06:03;;;;;;;5.18;3.20;;;;;;;-143.66;100.00;63766.88;5066859;28;20059;-62
2022/08/05 05:08:29;;;;;;;4.93;3.30;;;;;;;-143.66;100.00;63766.88;5061784;28;20059;-62
2022/08/05 05:10:54;;;;;;;3.53;3.00;;;;;;;-143.66;100.00;63766.88;5056109;28;20415;-62
2022/08/05 05:13:20;;;;;;;4.78;2.92;;;;;;;-143.66;100.00;63766.88;5061957;28;20036;-62
2022/08/05 05:15:46;;;;;;;3.63;2.70;;;;;;;-143.66;100.00;63766.88;5062334;28;20051;-62
2022/08/05 05:18:13;;;;;;;3.38;2.90;;;;;;;-143.66;100.00;63766.88;5064104;28;20189;-63
2022/08/05 05:20:41;;;;;;;4.45;3.03;;;;;;;-143.66;100.00;63766.88;5059707;28;20122;-62
2022/08/05 05:23:06;;;;;;;5.25;2.95;;;;;;;-143.66;100.00;63766.88;5063646;28;20036;-62
2022/08/05 05:25:32;;;;;;;3.67;3.13;;;;;;;-143.66;100.00;63766.88;5060403;28;20056;-63
2022/08/05 05:27:57;;;;;;;4.25;3.17;;;;;;;-143.66;100.00;63766.88;5063606;28;20051;-63
2022/08/05 05:30:23;;;;;;;4.80;3.60;;;;;;;-143.66;100.00;63766.88;5059132;28;20033;-62
2022/08/05 05:32:48;;;;;;;3.58;2.60;;;;;;;-143.66;100.00;63766.88;5060871;28;20044;-62
2022/08/05 05:35:15;;;;;;;4.60;2.92;;;;;;;-143.66;100.00;63766.88;5060210;28;20048;-63
2022/08/05 05:37:54;;;;;;;5.25;3.28;;;;;;;-143.66;100.00;63766.88;5060084;28;20037;-62
2022/08/05 05:40:22;;;;;;;6.13;3.75;;;;;;;-143.66;100.00;63766.88;5050806;28;20103;-63
2022/08/05 05:42:48;;;;;;;3.63;3.03;;;;;;;-143.66;100.00;63766.88;5054372;28;20048;-63
2022/08/05 05:45:14;;;;;;;3.90;3.05;;;;;;;-143.66;100.00;63766.88;5055646;28;20536;-62
2022/08/05 05:47:40;;;;;;;4.43;3.33;;;;;;;-143.66;100.00;63766.88;5056509;28;20144;-62
2022/08/05 05:50:07;;;;;;;6.30;3.17;;;;;;;-143.66;100.00;63766.88;5051683;28;20032;-62
2022/08/05 05:52:33;;;;;;;7.35;3.10;;;;;;;-143.66;100.00;63766.88;5057850;28;20066;-62
2022/08/05 05:54:59;;;;;;;3.70;3.00;;;;;;;-143.66;100.00;63766.88;5064901;28;20124;-62
2022/08/05 05:57:25;;;;;;;6.10;3.30;;;;;;;-143.66;100.00;63766.88;5063803;28;20448;-62
2022/08/05 05:59:51;;;;;;;4.72;3.22;;;;;;;-143.66;100.00;63766.88;5064960;28;20044;-62
2022/08/05 06:02:17;;;;;;;4.22;2.80;;;;;;;-143.66;100.00;63766.88;5062614;28;20056;-62
2022/08/05 06:04:42;;;;;;;3.38;2.88;;;;;;;-143.66;100.00;63766.88;5060237;28;20390;-62
2022/08/05 06:07:08;;;;;;;3.35;2.90;;;;;;;-143.66;100.00;63766.88;5070911;28;20032;-62
2022/08/05 06:09:33;;;;;;;4.70;2.90;;;;;;;-143.66;100.00;63766.88;5066457;28;20577;-62
2022/08/05 06:11:59;;;;;;;3.92;2.90;;;;;;;-143.66;100.00;63766.88;5063693;28;20044;-62
2022/08/05 06:14:24;;;;;;;3.33;3.00;;;;;;;-143.66;100.00;63766.88;5063629;28;20032;-62
2022/08/05 06:16:50;;;;;;;2.88;2.58;;;;;;;-143.66;100.00;63766.88;5071640;28;20037;-62
2022/08/05 06:19:15;;;;;;;4.07;3.17;;;;;;;-143.66;100.00;63766.88;5058626;28;20162;-62
2022/08/05 06:21:41;;;;;;;4.65;2.80;;;;;;;-143.66;100.00;63766.88;5066094;28;20144;-62
2022/08/05 06:24:07;;;;;;;3.90;3.05;;;;;;;-143.66;100.00;63766.88;5067852;28;20048;-61
2022/08/05 06:26:32;;;;;;;3.92;2.80;;;;;;;-143.66;100.00;63766.88;5061994;28;20079;-62
2022/08/05 06:28:58;;;;;;;3.60;2.92;;;;;;;-143.66;100.00;63766.88;5061782;28;20079;-62
2022/08/05 06:31:24;;;;;;;4.15;2.80;;;;;;;-143.66;100.00;63766.88;5065543;28;20521;-62
2022/08/05 06:33:49;;;;;;;3.05;2.75;;;;;;;-143.66;100.00;63766.88;5059473;28;20059;-62
2022/08/05 06:36:15;;;;;;;3.83;3.03;;;;;;;-143.66;100.00;63766.88;5065423;28;20044;-61
2022/08/05 06:38:40;;;;;;;3.47;3.13;;;;;;;-143.66;100.00;63766.88;5064840;28;20040;-62
2022/08/05 06:41:06;;;;;;;2.90;2.65;;;;;;;-143.66;100.00;63766.88;5060668;28;20124;-62
2022/08/05 06:43:32;;;;;;;4.55;3.25;;;;;;;-143.66;100.00;63766.88;5061152;28;20055;-62
2022/08/05 06:45:58;;;;;;;3.28;2.85;;;;;;;-143.66;100.00;63766.88;5065907;28;20035;-62
2022/08/05 06:48:23;;;;;;;3.42;2.90;;;;;;;-143.66;100.00;63766.88;5059624;28;20108;-62
2022/08/05 06:50:48;;;;;;;4.95;3.10;;;;;;;-143.66;100.00;63766.88;5060109;28;20043;-62
2022/08/05 06:53:14;;;;;;;3.22;2.88;;;;;;;-143.66;100.00;63766.88;5064438;28;20048;-62
2022/08/05 06:55:40;;;;;;;5.72;3.33;;;;;;;-143.66;100.00;63766.88;5054132;28;20630;-62
2022/08/05 06:58:06;;;;;;;4.18;2.78;;;;;;;-143.66;100.00;63766.88;5063477;28;20044;-62
2022/08/05 07:00:32;;;;;;;4.63;2.88;;;;;;;-143.66;100.00;63766.88;5061312;28;20090;-62
2022/08/05 07:02:58;;;;;;;3.35;3.00;;;;;;;-143.66;100.00;63766.88;5063977;28;20052;-62
2022/08/05 07:05:24;;;;;;;3.08;2.72;;;;;;;-143.66;100.00;63766.88;5061384;28;20045;-62
2022/08/05 07:07:50;;;;;;;3.13;2.80;;;;;;;-143.66;100.00;63766.88;5043196;28;20613;-64
2022/08/05 07:10:15;;;;;;;3.15;2.85;;;;;;;-143.66;100.00;63766.88;5066013;28;20029;-64
2022/08/05 07:18:09;;;;;;;3.63;2.88;;;;;;;-143.66;100.00;63766.88;5071536;28;20148;-61
2022/08/05 07:20:35;;;;;;;4.43;2.92;;;;;;;-143.66;100.00;63766.88;5062327;28;20044;-62
2022/08/05 07:23:01;;;;;;;3.97;3.15;;;;;;;-143.66;100.00;63766.88;5058043;28;20493;-61
2022/08/05 07:25:26;;;;;;;3.97;3.42;;;;;;;-143.66;100.00;63766.88;5044476;28;20048;-64
2022/08/05 07:27:53;;;;;;;4.40;3.10;;;;;;;-143.66;100.00;63766.88;5063637;28;20196;-64
2022/08/05 07:30:19;;;;;;;4.53;2.83;;;;;;;-143.66;100.00;63766.88;5062106;28;20119;-61
2022/08/05 07:32:44;;;;;;;3.70;2.85;;;;;;;-143.66;100.00;63766.88;5068960;28;20119;-62
2022/08/05 07:35:11;;;;;;;3.38;2.75;;;;;;;-143.66;100.00;63766.88;5066092;28;20085;-62
2022/08/05 07:37:38;;;;;;;6.07;3.03;;;;;;;-143.66;100.00;63766.88;5067203;28;20485;-62
2022/08/05 07:40:05;;;;;;;5.82;2.92;;;;;;;-143.66;100.00;63766.88;5070956;28;20036;-62
2022/08/05 07:42:31;;;;;;;5.03;2.85;;;;;;;-143.66;100.00;63766.88;5068431;28;20048;-62
2022/08/05 07:44:57;;;;;;;4.22;2.88;;;;;;;-143.66;100.00;63766.88;5060332;28;20101;-62
2022/08/05 07:47:22;;;;;;;3.72;2.38;;;;;;;-143.66;100.00;63766.88;5074605;28;20036;-62
2022/08/05 07:49:51;;;;;;;4.05;2.40;;;;;;;-143.66;100.00;63766.88;5067857;28;20121;-62
2022/08/05 07:52:17;;;;;;;4.75;2.50;;;;;;;-143.66;100.00;63766.88;5065777;28;20142;-62
2022/08/05 07:54:43;;;;;;;4.13;2.35;;;;;;;-143.66;100.00;63766.88;5062905;28;20036;-62
2022/08/05 07:57:08;;;;;;;2.67;2.38;;;;;;;-143.66;100.00;63766.88;5069566;28;20056;-62
2022/08/05 07:59:34;;;;;;;4.25;2.33;;;;;;;-143.66;100.00;63766.88;5059418;28;20040;-62
2022/08/05 08:02:01;;;;;;;5.75;2.75;;;;;;;-143.66;100.00;63766.88;5069132;28;20037;-63
2022/08/05 08:04:26;;;;;;;4.97;2.85;;;;;;;-143.66;100.00;63766.88;5071311;28;20071;-63
2022/08/05 08:06:52;;;;;;;6.38;2.85;;;;;;;-143.66;100.00;63766.88;5065141;28;20082;-63
2022/08/05 08:09:18;;;;;;;6.05;2.60;;;;;;;-143.66;100.00;63766.88;5066547;28;20052;-63
2022/08/05 08:11:43;;;;;;;3.05;2.30;;;;;;;-143.66;100.00;63766.88;5065233;28;20040;-62
2022/08/05 08:14:09;;;;;;;6.28;2.50;;;;;;;-143.66;100.00;63766.88;5072939;28;20045;-62
2022/08/05 08:16:34;;;;;;;4.28;2.33;;;;;;;-143.66;100.00;63766.88;5058476;28;20040;-62
2022/08/05 08:19:00;;;;;;;9.48;3.03;;;;;;;-143.66;100.00;63766.88;5068336;28;20047;-62
2022/08/05 08:21:25;;;;;;;8.45;2.75;;;;;;;-143.66;100.00;63766.88;5067621;28;20443;-62
2022/08/05 08:23:51;;;;;;;8.30;2.80;;;;;;;-143.66;100.00;63766.88;5063121;28;20044;-62
2022/08/05 08:26:16;;;;;;;7.68;2.38;;;;;;;-143.66;100.00;63766.88;5062483;28;20036;-62
2022/08/05 08:28:42;;;;;;;5.90;2.60;;;;;;;-143.66;100.00;63766.88;5064628;28;20037;-62
2022/08/05 08:31:08;;;;;;;6.55;2.50;;;;;;;-143.66;100.00;63766.88;5064559;28;20040;-62
2022/08/05 08:33:34;;;;;;;5.13;2.45;;;;;;;-143.66;100.00;63766.88;5067060;28;20043;-62
2022/08/05 08:35:59;;;;;;;6.10;2.50;;;;;;;-143.66;100.00;63766.88;5067265;28;20047;-62
2022/08/05 08:38:25;;;;;;;6.07;2.45;;;;;;;-143.66;100.00;63766.88;5046835;28;20035;-62
2022/08/05 08:40:51;;;;;;;2.90;2.60;;;;;;;-143.66;100.00;63766.88;5062180;28;20348;-62
2022/08/05 08:43:18;;;;;;;3.70;2.03;;;;;;;-143.66;100.00;63766.88;5067957;28;20040;-62
2022/08/05 08:45:45;;;;;;;4.10;2.45;;;;;;;-143.66;100.00;63766.88;5064817;28;20109;-62
2022/08/05 08:48:14;;;;;;;2.78;2.40;;;;;;;-143.66;100.00;63766.88;5067494;28;20044;-62
2022/08/05 08:50:42;;;;;;;3.35;2.30;;;;;;;-143.66;100.00;63766.88;5067714;28;20038;-62
2022/08/05 08:53:10;;;;;;;2.50;2.10;;;;;;;-143.66;100.00;63766.88;5062523;28;20896;-62
2022/08/05 08:55:37;;;;;;;5.72;2.80;;;;;;;-143.66;100.00;63766.88;5062093;28;20035;-62
2022/08/05 08:58:03;;;;;;;3.15;1.95;;;;;;;-143.66;100.00;63766.88;5072095;28;20093;-61
2022/08/05 09:00:29;;;;;;;3.33;1.83;;;;;;;-143.66;100.00;63766.88;5065786;28;20040;-64
2022/08/05 09:02:56;;;;;;;2.40;2.20;;;;;;;-143.66;100.00;63766.88;5060195;28;20091;-62
2022/08/05 09:05:22;;;;;;;3.90;2.53;;;;;;;-143.66;100.00;63766.88;5064953;28;20043;-62
2022/08/05 09:07:51;;;;;;;5.40;2.00;;;;;;;-143.66;100.00;63766.88;5063670;28;20071;-65
2022/08/05 09:10:17;;;;;;;4.75;1.98;;;;;;;-143.66;100.00;63766.88;5063807;28;20040;-62
2022/08/05 09:12:43;;;;;;;13.18;2.20;;;;;;;-143.66;100.00;63766.88;5062005;28;20047;-62
2022/08/05 09:15:09;;;;;;;5.72;2.08;;;;;;;-143.66;100.00;63766.88;5069351;28;20048;-62
2022/08/05 09:17:34;;;;;;;3.85;2.05;;;;;;;-143.66;100.00;63766.88;5067016;28;20147;-62
2022/08/05 09:20:01;;;;;;;4.15;2.40;;;;;;;-143.66;100.00;63766.88;5065407;28;20127;-62
2022/08/05 09:22:27;;;;;;;6.00;2.38;;;;;;;-143.66;100.00;63766.88;5064779;28;20032;-62
2022/08/05 09:24:58;;;;;;;9.63;2.00;;;;;;;-143.66;100.00;63766.88;5052197;28;20515;-62
2022/08/05 09:27:34;;;;;;;6.10;1.88;;;;;;;-143.66;100.00;63766.88;5014119;28;21129;-70
2022/08/05 09:30:00;;;;;;;4.75;2.20;;;;;;;-143.66;100.00;63766.88;5069427;28;20033;-67
2022/08/05 09:32:36;;;;;;;4.63;2.40;;;;;;;-143.66;100.00;63766.88;5069686;28;20036;-72
2022/08/05 09:35:13;;;;;;;2.90;1.90;;;;;;;-143.66;100.00;63766.88;5072128;28;20041;-67
2022/08/05 09:37:52;;;;;;;5.90;1.90;;;;;;;-143.66;100.00;63766.88;5064164;28;20356;-69
2022/08/05 09:40:42;;;;;;;3.45;2.03;;;;;;;-143.66;100.00;63766.88;5063663;28;20097;-66
2022/08/05 09:43:25;;;;;;;2.92;1.95;;;;;;;-143.66;100.00;63766.88;5044360;28;20633;-65
2022/08/05 09:45:50;;;;;;;6.80;2.00;;;;;;;-143.66;100.00;63766.88;5059579;28;20024;-65
2022/08/05 09:48:28;;;;;;;4.10;2.15;;;;;;;-143.66;100.00;63766.88;5065944;28;20056;-65
2022/08/05 09:50:57;;;;;;;3.22;2.00;;;;;;;-143.66;100.00;63766.88;5061689;28;20124;-65
2022/08/05 09:53:23;;;;;;;7.72;2.22;;;;;;;-143.66;100.00;63766.88;5072745;28;20445;-65
2022/08/05 09:55:51;;;;;;;2.97;1.90;;;;;;;-143.66;100.00;63766.88;5071586;28;20945;-65
2022/08/05 09:58:17;;;;;;;4.80;2.03;;;;;;;-143.66;100.00;63766.88;5045316;28;20045;-64
2022/08/05 10:00:58;;;;;;;3.78;1.92;;;;;;;-143.66;100.00;63766.88;5056739;28;20051;-65
2022/08/05 10:03:24;;;;;;;2.22;1.80;;;;;;;-143.66;100.00;63766.88;5070132;28;20068;-65
2022/08/05 10:06:09;;;;;;;3.75;1.98;;;;;;;-143.66;100.00;63766.88;5071985;28;20039;-65
2022/08/05 10:08:37;;;;;;;3.15;2.03;;;;;;;-143.66;100.00;63766.88;5070264;28;20032;-65
2022/08/05 10:11:14;;;;;;;4.07;1.73;;;;;;;-143.66;100.00;63766.88;5055499;28;20918;-65
2022/08/05 10:13:41;;;;;;;2.42;1.88;;;;;;;-143.66;100.00;63766.88;5059143;28;20170;-65
2022/08/05 10:16:27;;;;;;;2.05;1.85;;;;;;;-143.66;100.00;63766.88;5067533;28;20534;-65
2022/08/05 10:18:53;;;;;;;3.78;1.92;;;;;;;-143.66;100.00;63766.88;5068467;28;20047;-65
2022/08/05 10:21:19;;;;;;;2.15;1.90;;;;;;;-143.66;100.00;63766.88;5073719;28;20036;-65
2022/08/05 10:23:45;;;;;;;2.20;1.80;;;;;;;-143.66;100.00;63766.88;5071992;28;20047;-65
2022/08/05 10:26:11;;;;;;;5.35;1.83;;;;;;;-143.66;100.00;63766.88;5065528;28;20608;-65
2022/08/05 10:28:37;;;;;;;3.20;1.95;;;;;;;-143.66;100.00;63766.88;5051392;28;20643;-66
2022/08/05 10:31:03;;;;;;;2.45;1.80;;;;;;;-143.66;100.00;63766.88;5067453;28;20040;-66
2022/08/05 10:33:31;;;;;;;2.83;1.75;;;;;;;-143.66;100.00;63766.88;5069523;28;20028;-66
2022/08/05 10:35:58;;;;;;;5.25;2.08;;;;;;;-143.66;100.00;63766.88;5069508;28;20620;-65
2022/08/05 10:38:27;;;;;;;2.20;1.80;;;;;;;-143.66;100.00;63766.88;5063456;28;20032;-66
2022/08/05 10:41:00;;;;;;;2.10;1.85;;;;;;;-143.66;100.00;63766.88;5046796;28;20036;-65
2022/08/05 10:43:29;;;;;;;5.82;1.88;;;;;;;-143.66;100.00;63766.88;5062972;28;20073;-65
2022/08/05 10:45:57;;;;;;;4.78;1.90;;;;;;;-143.66;100.00;63766.88;5053649;28;20040;-66
2022/08/05 10:48:38;;;;;;;2.53;2.22;;;;;;;-143.66;100.00;63766.88;5067470;28;20036;-65
2022/08/05 10:51:12;;;;;;;5.82;1.90;;;;;;;-143.66;100.00;63766.88;5062514;28;20076;-66
2022/08/05 10:53:42;;;;;;;7.28;2.35;;;;;;;-143.66;100.00;63766.88;5055758;28;20059;-66
2022/08/05 10:56:10;;;;;;;;;;;;;;;-143.66;100.00;63766.88;5068046;28;20831;-65
2022/08/05 10:59:04;;;;;;;2.70;1.70;;;;;;;-143.66;100.00;63766.88;5052627;28;19956;-65
2022/08/05 11:01:32;;;;;;;3.35;1.75;;;;;;;-143.66;100.00;63766.88;5055576;28;20491;-65
2022/08/05 11:04:06;;;;;;;3.88;1.85;;;;;;;-143.66;100.00;63766.88;5064708;28;20053;-65
2022/08/05 11:06:33;;;;;;;3.65;1.60;;;;;;;-143.66;100.00;63766.88;5061824;28;20417;-65
2022/08/05 11:09:19;;;;;;;3.55;1.65;;;;;;;-143.66;100.00;63766.88;5061766;28;20117;-65
2022/08/05 11:11:48;;;;;;;3.45;1.85;;;;;;;-143.66;100.00;63766.88;5062574;28;20083;-66
2022/08/05 11:14:22;;;;;;;2.13;1.73;;;;;;;-143.66;100.00;63766.88;5056737;28;20081;-65
2022/08/05 11:17:24;;;;;;;4.50;1.88;;;;;;;-143.66;100.00;63766.88;5073352;28;20095;-65
2022/08/05 11:19:52;;;;;;;3.40;1.58;;;;;;;-143.66;100.00;63766.88;5064788;28;20525;-67